Time;durP1;ratioP1;P1;durP2;ratioP2;P2;SDS_P1;SDS_P2;PMS_P1;PMS_P2;Temp;Humidity;BMP_temperature;BMP_pressure;BME280_temperature;BME280_humidity;BME280_pressure;Samples;Min_cycle;Max_cycle;Signal;HPM_P1;HPM_P2
2021/11/10 00:00:40;;;;;;;13.50;6.80;;;;;;;;;;4994422;28;20125;-83
2021/11/10 00:03:07;;;;;;;14.10;8.27;;;;;;;;;;4999398;28;20117;-83
2021/11/10 00:05:33;;;;;;;16.40;7.97;;;;;;;;;;4986208;28;20022;-83
2021/11/10 00:08:02;;;;;;;14.20;8.48;;;;;;;;;;4975939;28;20030;-83
2021/11/10 00:10:27;;;;;;;14.10;7.53;;;;;;;;;;4990803;28;20022;-83
2021/11/10 00:13:10;;;;;;;18.98;8.50;;;;;;;;;;4985822;28;20066;-83
2021/11/10 00:15:36;;;;;;;16.67;9.10;;;;;;;;;;4988020;28;20074;-83
2021/11/10 00:18:02;;;;;;;17.40;8.68;;;;;;;;;;4968916;28;20038;-83
2021/11/10 00:20:28;;;;;;;17.35;9.32;;;;;;;;;;4989513;28;20026;-83
2021/11/10 00:22:54;;;;;;;18.73;9.38;;;;;;;;;;4985485;28;20120;-83
2021/11/10 00:25:20;;;;;;;16.85;8.88;;;;;;;;;;4986304;28;20026;-83
2021/11/10 00:27:46;;;;;;;15.43;7.50;;;;;;;;;;4980012;28;20050;-83
2021/11/10 00:30:12;;;;;;;13.85;8.02;;;;;;;;;;4994754;28;20449;-83
2021/11/10 00:32:38;;;;;;;19.08;8.63;;;;;;;;;;4990986;28;20080;-83
2021/11/10 00:35:04;;;;;;;15.00;8.45;;;;;;;;;;4979083;28;20028;-82
2021/11/10 00:37:30;;;;;;;13.25;7.45;;;;;;;;;;4992187;28;20065;-83
2021/11/10 00:39:56;;;;;;;15.50;8.27;;;;;;;;;;4994040;28;20034;-83
2021/11/10 00:42:22;;;;;;;14.45;7.60;;;;;;;;;;4986960;28;20034;-83
2021/11/10 00:44:48;;;;;;;16.38;7.95;;;;;;;;;;4981247;28;20030;-83
2021/11/10 00:47:14;;;;;;;15.93;8.25;;;;;;;;;;4992054;28;20040;-83
2021/11/10 00:49:40;;;;;;;14.27;8.35;;;;;;;;;;4982591;28;20062;-83
2021/11/10 00:52:07;;;;;;;16.08;8.65;;;;;;;;;;4991353;28;20061;-83
2021/11/10 00:54:33;;;;;;;16.63;8.63;;;;;;;;;;4976437;28;20078;-83
2021/11/10 00:56:59;;;;;;;16.67;8.38;;;;;;;;;;4980202;28;20427;-83
2021/11/10 00:59:25;;;;;;;14.63;8.82;;;;;;;;;;4988220;28;20034;-83
2021/11/10 01:01:51;;;;;;;16.45;9.20;;;;;;;;;;4990872;28;20390;-83
2021/11/10 01:04:17;;;;;;;20.40;9.23;;;;;;;;;;4989115;28;20531;-83
2021/11/10 01:06:43;;;;;;;16.10;8.55;;;;;;;;;;4988374;28;20451;-83
2021/11/10 01:09:16;;;;;;;17.27;9.13;;;;;;;;;;4972975;28;20054;-83
2021/11/10 01:11:42;;;;;;;14.85;8.68;;;;;;;;;;4989745;28;20030;-83
2021/11/10 01:14:08;;;;;;;16.10;9.48;;;;;;;;;;4990834;28;20069;-83
2021/11/10 01:16:34;;;;;;;16.75;8.68;;;;;;;;;;4990568;28;20056;-83
2021/11/10 01:19:00;;;;;;;17.48;8.52;;;;;;;;;;4986731;28;20039;-83
2021/11/10 01:21:26;;;;;;;16.88;9.30;;;;;;;;;;4987832;28;20030;-83
2021/11/10 01:23:52;;;;;;;15.48;8.00;;;;;;;;;;4985744;28;20038;-83
2021/11/10 01:26:18;;;;;;;17.77;8.93;;;;;;;;;;4987194;28;20383;-83
2021/11/10 01:28:44;;;;;;;14.85;8.25;;;;;;;;;;4974124;28;20499;-83
2021/11/10 01:31:11;;;;;;;15.45;8.45;;;;;;;;;;4970786;28;20030;-83
2021/11/10 01:33:37;;;;;;;14.23;8.07;;;;;;;;;;4989648;28;20391;-83
2021/11/10 01:36:03;;;;;;;18.15;7.90;;;;;;;;;;4989705;28;20026;-83
2021/11/10 01:38:29;;;;;;;16.23;8.23;;;;;;;;;;4990008;28;20093;-83
2021/11/10 01:40:55;;;;;;;14.45;7.80;;;;;;;;;;4982874;28;20026;-83
2021/11/10 01:43:21;;;;;;;13.13;7.95;;;;;;;;;;4989029;28;20027;-83
2021/11/10 01:45:47;;;;;;;14.45;7.28;;;;;;;;;;4980034;28;20122;-83
2021/11/10 01:48:14;;;;;;;16.25;8.63;;;;;;;;;;4988321;28;20445;-83
2021/11/10 01:50:40;;;;;;;13.55;8.77;;;;;;;;;;4977433;28;20027;-83
2021/11/10 01:53:06;;;;;;;18.55;9.20;;;;;;;;;;4986250;28;20027;-83
2021/11/10 01:55:32;;;;;;;19.90;9.00;;;;;;;;;;4991043;28;20022;-83
2021/11/10 01:57:58;;;;;;;16.15;9.07;;;;;;;;;;4985291;28;20026;-83
2021/11/10 02:00:26;;;;;;;18.88;9.25;;;;;;;;;;4991372;28;20027;-83
2021/11/10 02:02:53;;;;;;;18.75;9.07;;;;;;;;;;4990710;28;20035;-83
2021/11/10 02:05:20;;;;;;;19.27;10.57;;;;;;;;;;4977905;28;20034;-83
2021/11/10 02:07:47;;;;;;;16.55;9.05;;;;;;;;;;4986103;28;20819;-83
2021/11/10 02:10:15;;;;;;;14.52;9.15;;;;;;;;;;4974530;28;20062;-83
2021/11/10 02:12:42;;;;;;;16.83;9.70;;;;;;;;;;4975095;28;20386;-83
2021/11/10 02:15:10;;;;;;;16.55;9.20;;;;;;;;;;4976776;28;20026;-83
2021/11/10 02:17:37;;;;;;;15.88;9.02;;;;;;;;;;4975858;28;20121;-83
2021/11/10 02:20:04;;;;;;;21.60;9.40;;;;;;;;;;4989865;28;20054;-83
2021/11/10 02:22:32;;;;;;;16.40;8.85;;;;;;;;;;4970964;28;20035;-83
2021/11/10 02:24:58;;;;;;;16.80;9.15;;;;;;;;;;4981277;28;20386;-83
2021/11/10 02:27:32;;;;;;;19.25;9.30;;;;;;;;;;4966617;28;20046;-83
2021/11/10 02:29:58;;;;;;;19.20;9.95;;;;;;;;;;4981792;28;20425;-82
2021/11/10 02:32:24;;;;;;;15.13;8.48;;;;;;;;;;4988039;28;20097;-82
2021/11/10 02:34:50;;;;;;;18.20;9.52;;;;;;;;;;4991377;28;20460;-82
2021/11/10 02:37:17;;;;;;;15.63;9.18;;;;;;;;;;4982875;28;20108;-82
2021/11/10 02:39:44;;;;;;;16.67;8.95;;;;;;;;;;4995305;28;20051;-83
2021/11/10 02:42:10;;;;;;;16.23;8.93;;;;;;;;;;4987188;28;20026;-83
2021/11/10 02:44:36;;;;;;;17.80;9.88;;;;;;;;;;4993450;28;20530;-82
2021/11/10 02:47:02;;;;;;;15.20;8.45;;;;;;;;;;4989864;28;20120;-82
2021/11/10 02:49:29;;;;;;;14.70;8.95;;;;;;;;;;4992811;28;20517;-83
2021/11/10 02:51:59;;;;;;;18.27;10.02;;;;;;;;;;4977295;28;20022;-83
2021/11/10 02:54:26;;;;;;;19.65;9.70;;;;;;;;;;4983177;28;20030;-82
2021/11/10 02:56:56;;;;;;;18.85;8.55;;;;;;;;;;4989905;28;20438;-82
2021/11/10 02:59:22;;;;;;;18.92;9.07;;;;;;;;;;4990339;28;20125;-83
2021/11/10 03:01:48;;;;;;;15.70;8.48;;;;;;;;;;4976709;28;20070;-82
2021/11/10 03:04:18;;;;;;;16.77;9.00;;;;;;;;;;4990938;28;20130;-82
2021/11/10 03:06:45;;;;;;;19.08;10.25;;;;;;;;;;4992910;28;20022;-82
2021/11/10 03:09:11;;;;;;;20.98;9.80;;;;;;;;;;4984309;28;20074;-82
2021/11/10 03:11:37;;;;;;;16.50;8.73;;;;;;;;;;4991952;28;20034;-82
2021/11/10 03:14:03;;;;;;;16.50;8.00;;;;;;;;;;4981417;28;20062;-82
2021/11/10 03:16:29;;;;;;;16.13;9.65;;;;;;;;;;4989417;28;20394;-83
2021/11/10 03:18:54;;;;;;;20.05;10.80;;;;;;;;;;4988771;28;20038;-83
2021/11/10 03:21:20;;;;;;;17.90;10.38;;;;;;;;;;4976567;28;20462;-83
2021/11/10 03:23:46;;;;;;;21.92;12.23;;;;;;;;;;4987028;28;20057;-83
2021/11/10 03:26:12;;;;;;;19.83;10.73;;;;;;;;;;4986257;28;20022;-83
2021/11/10 03:28:38;;;;;;;21.40;11.32;;;;;;;;;;4975398;28;20406;-82
2021/11/10 03:31:04;;;;;;;29.05;12.43;;;;;;;;;;4979748;28;20023;-82
2021/11/10 03:33:30;;;;;;;20.30;10.38;;;;;;;;;;4978574;28;20031;-82
2021/11/10 03:35:56;;;;;;;20.90;10.18;;;;;;;;;;4990327;28;20080;-82
2021/11/10 03:38:22;;;;;;;19.35;10.98;;;;;;;;;;4982964;28;20068;-82
2021/11/10 03:40:48;;;;;;;21.27;10.20;;;;;;;;;;4978914;28;20038;-82
2021/11/10 03:43:14;;;;;;;21.88;11.18;;;;;;;;;;4986513;28;20104;-82
2021/11/10 03:45:40;;;;;;;24.15;10.32;;;;;;;;;;4980073;28;20026;-83
2021/11/10 03:48:08;;;;;;;19.35;10.63;;;;;;;;;;4991569;28;20394;-83
2021/11/10 03:50:34;;;;;;;23.83;10.75;;;;;;;;;;4989479;28;20554;-83
2021/11/10 03:53:00;;;;;;;22.98;10.07;;;;;;;;;;4991431;28;20061;-82
2021/11/10 03:55:34;;;;;;;18.35;10.23;;;;;;;;;;4992215;28;20372;-83
2021/11/10 03:58:00;;;;;;;22.42;10.60;;;;;;;;;;4985931;28;20018;-83
2021/11/10 04:00:26;;;;;;;25.23;10.23;;;;;;;;;;4989142;28;20057;-83
2021/11/10 04:02:52;;;;;;;18.95;10.38;;;;;;;;;;4984849;28;20117;-82
2021/11/10 04:05:18;;;;;;;18.20;10.10;;;;;;;;;;4978216;28;20149;-82
2021/11/10 04:07:45;;;;;;;18.05;9.95;;;;;;;;;;4974875;28;20033;-82
2021/11/10 04:10:12;;;;;;;23.33;10.57;;;;;;;;;;4983257;28;20110;-82
2021/11/10 04:12:38;;;;;;;16.17;9.25;;;;;;;;;;4985887;28;20436;-82
2021/11/10 04:15:04;;;;;;;17.92;9.65;;;;;;;;;;4985503;28;20033;-82
2021/11/10 04:17:30;;;;;;;17.95;9.88;;;;;;;;;;4992893;28;20125;-82
2021/11/10 04:19:56;;;;;;;20.23;9.63;;;;;;;;;;4972113;28;20105;-82
2021/11/10 04:22:23;;;;;;;20.67;10.18;;;;;;;;;;4987717;28;20129;-82
2021/11/10 04:24:50;;;;;;;22.55;10.98;;;;;;;;;;4986066;28;20027;-82
2021/11/10 04:27:18;;;;;;;23.42;10.88;;;;;;;;;;4986325;28;20055;-82
2021/11/10 04:29:45;;;;;;;23.63;10.68;;;;;;;;;;4961916;28;20023;-82
2021/11/10 04:32:11;;;;;;;20.10;10.15;;;;;;;;;;4968923;28;20467;-82
2021/11/10 04:34:37;;;;;;;20.35;10.30;;;;;;;;;;4985020;28;20059;-82
2021/11/10 04:37:04;;;;;;;20.63;10.23;;;;;;;;;;4968620;28;20038;-82
2021/11/10 04:39:30;;;;;;;23.17;11.15;;;;;;;;;;4967259;28;20037;-82
2021/11/10 04:41:56;;;;;;;18.52;10.60;;;;;;;;;;4964309;28;20410;-82
2021/11/10 04:44:23;;;;;;;22.23;10.48;;;;;;;;;;4984328;28;20030;-82
2021/11/10 04:46:51;;;;;;;20.52;10.75;;;;;;;;;;4987786;28;20035;-82
2021/11/10 04:49:17;;;;;;;22.08;10.25;;;;;;;;;;4987441;28;21288;-83
2021/11/10 04:51:44;;;;;;;19.23;10.05;;;;;;;;;;4987384;28;20030;-82
2021/11/10 04:54:13;;;;;;;23.70;10.93;;;;;;;;;;4962158;28;20031;-82
2021/11/10 04:56:40;;;;;;;18.15;9.73;;;;;;;;;;4983108;28;20055;-82
2021/11/10 04:59:06;;;;;;;19.23;10.13;;;;;;;;;;4967804;28;20411;-83
2021/11/10 05:01:38;;;;;;;21.73;10.73;;;;;;;;;;4970696;28;20034;-83
2021/11/10 05:04:07;;;;;;;20.40;10.98;;;;;;;;;;4967442;28;20063;-84
2021/11/10 05:06:34;;;;;;;17.15;9.40;;;;;;;;;;4963450;28;20114;-84
2021/11/10 05:09:00;;;;;;;20.58;11.23;;;;;;;;;;4970116;28;20117;-83
2021/11/10 05:11:26;;;;;;;23.67;11.75;;;;;;;;;;4968027;28;20038;-84
2021/11/10 05:13:52;;;;;;;19.55;10.00;;;;;;;;;;4961281;28;20085;-85
2021/11/10 05:16:18;;;;;;;24.40;10.20;;;;;;;;;;4965452;28;20070;-84
2021/11/10 05:18:44;;;;;;;24.50;10.80;;;;;;;;;;4964456;28;20030;-85
2021/11/10 05:21:10;;;;;;;18.65;10.00;;;;;;;;;;4963674;28;20040;-85
2021/11/10 05:23:36;;;;;;;23.17;11.00;;;;;;;;;;4964806;28;20502;-84
2021/11/10 05:26:03;;;;;;;23.08;10.85;;;;;;;;;;4983531;28;20472;-84
2021/11/10 05:28:28;;;;;;;23.48;11.32;;;;;;;;;;4970667;28;20150;-85
2021/11/10 05:30:55;;;;;;;21.73;11.55;;;;;;;;;;4986875;28;20019;-85
2021/11/10 05:33:21;;;;;;;19.05;10.52;;;;;;;;;;4968723;28;20033;-85
2021/11/10 05:35:47;;;;;;;20.25;10.35;;;;;;;;;;4968750;28;20386;-86
2021/11/10 05:38:13;;;;;;;19.00;10.55;;;;;;;;;;4965440;28;20440;-86
2021/11/10 05:40:39;;;;;;;21.70;11.13;;;;;;;;;;4985666;28;20036;-86
2021/11/10 05:43:05;;;;;;;21.40;10.98;;;;;;;;;;4979319;28;20045;-85
2021/11/10 05:45:32;;;;;;;21.98;10.73;;;;;;;;;;4978823;28;20042;-85
2021/11/10 05:47:58;;;;;;;22.85;11.27;;;;;;;;;;4980564;28;20028;-85
2021/11/10 05:50:24;;;;;;;22.35;10.80;;;;;;;;;;4984234;28;20027;-85
2021/11/10 05:52:50;;;;;;;21.30;10.98;;;;;;;;;;4972015;28;20101;-84
2021/11/10 05:55:17;;;;;;;24.77;11.13;;;;;;;;;;4983214;28;20031;-84
2021/11/10 05:57:43;;;;;;;24.40;9.30;;;;;;;;;;4962342;28;20027;-84
2021/11/10 06:00:10;;;;;;;21.00;10.57;;;;;;;;;;4972915;28;20045;-84
2021/11/10 06:02:36;;;;;;;18.52;10.70;;;;;;;;;;4972894;28;20118;-84
2021/11/10 06:05:02;;;;;;;18.80;10.57;;;;;;;;;;4972055;28;20554;-84
2021/11/10 06:07:29;;;;;;;16.83;9.48;;;;;;;;;;4968880;28;20026;-84
2021/11/10 06:09:55;;;;;;;22.05;9.75;;;;;;;;;;4987157;28;20035;-84
2021/11/10 06:12:21;;;;;;;22.17;10.88;;;;;;;;;;4965440;28;20395;-85
2021/11/10 06:14:47;;;;;;;17.67;9.60;;;;;;;;;;4974887;28;20066;-83
2021/11/10 06:17:13;;;;;;;19.60;10.32;;;;;;;;;;4973086;28;20506;-85
2021/11/10 06:19:39;;;;;;;21.38;10.32;;;;;;;;;;4990149;28;20039;-83
2021/11/10 06:22:05;;;;;;;17.75;10.57;;;;;;;;;;4978981;28;20510;-84
2021/11/10 06:24:31;;;;;;;20.70;10.43;;;;;;;;;;4974855;28;20023;-83
2021/11/10 06:26:57;;;;;;;22.73;10.73;;;;;;;;;;4965574;28;20482;-84
2021/11/10 06:29:23;;;;;;;17.67;9.52;;;;;;;;;;4986783;28;20046;-84
2021/11/10 06:31:50;;;;;;;18.88;10.50;;;;;;;;;;4992794;28;20040;-84
2021/11/10 06:34:16;;;;;;;23.63;9.57;;;;;;;;;;4986431;28;20526;-84
2021/11/10 06:36:42;;;;;;;19.15;10.10;;;;;;;;;;4969766;28;20030;-84
2021/11/10 06:39:08;;;;;;;21.33;10.30;;;;;;;;;;4990905;28;20181;-84
2021/11/10 06:41:34;;;;;;;18.77;9.88;;;;;;;;;;4976532;28;20037;-83
2021/11/10 06:44:00;;;;;;;20.08;9.63;;;;;;;;;;4992462;28;20019;-84
2021/11/10 06:46:27;;;;;;;22.25;10.57;;;;;;;;;;4985581;28;20118;-83
2021/11/10 06:48:53;;;;;;;17.73;9.65;;;;;;;;;;4977018;28;20031;-84
2021/11/10 06:51:19;;;;;;;16.25;9.82;;;;;;;;;;4977637;28;20030;-85
2021/11/10 06:53:45;;;;;;;18.20;10.00;;;;;;;;;;4995528;28;20022;-85
2021/11/10 06:56:12;;;;;;;18.35;9.80;;;;;;;;;;4999631;28;20034;-85
2021/11/10 06:58:38;;;;;;;19.50;9.38;;;;;;;;;;4993262;28;20494;-85
2021/11/10 07:01:04;;;;;;;17.40;9.55;;;;;;;;;;4977548;28;20031;-85
2021/11/10 07:03:30;;;;;;;22.58;11.05;;;;;;;;;;4984273;28;20058;-85
2021/11/10 07:05:56;;;;;;;22.52;10.55;;;;;;;;;;4992993;28;20034;-85
2021/11/10 07:08:22;;;;;;;17.08;10.07;;;;;;;;;;4979254;28;20030;-85
2021/11/10 07:10:48;;;;;;;29.88;11.73;;;;;;;;;;4975631;28;20390;-84
2021/11/10 07:13:14;;;;;;;22.77;10.50;;;;;;;;;;4990819;28;20027;-85
2021/11/10 07:15:40;;;;;;;19.00;10.63;;;;;;;;;;4976584;28;20096;-84
2021/11/10 07:18:06;;;;;;;19.70;10.98;;;;;;;;;;4992567;28;20104;-84
2021/11/10 07:20:32;;;;;;;18.55;9.50;;;;;;;;;;4980270;28;20105;-84
2021/11/10 07:22:59;;;;;;;21.98;11.82;;;;;;;;;;4990990;28;20559;-85
2021/11/10 07:25:26;;;;;;;19.70;9.98;;;;;;;;;;4986307;28;20031;-85
2021/11/10 07:27:52;;;;;;;20.27;10.20;;;;;;;;;;4992944;28;20057;-84
2021/11/10 07:30:18;;;;;;;21.08;10.90;;;;;;;;;;4992399;28;20026;-84
2021/11/10 07:32:44;;;;;;;20.10;10.77;;;;;;;;;;4990844;28;20041;-84
2021/11/10 07:35:10;;;;;;;18.90;10.75;;;;;;;;;;4994090;28;20037;-84
2021/11/10 07:37:37;;;;;;;22.35;11.25;;;;;;;;;;4975705;28;20496;-84
2021/11/10 07:40:04;;;;;;;19.55;10.70;;;;;;;;;;4975288;28;20172;-84
2021/11/10 07:42:31;;;;;;;24.50;10.80;;;;;;;;;;4974186;28;20035;-84
2021/11/10 07:45:06;;;;;;;20.38;11.02;;;;;;;;;;4992255;28;20079;-84
2021/11/10 07:47:39;;;;;;;23.65;11.40;;;;;;;;;;4984517;28;20050;-84
2021/11/10 07:50:05;;;;;;;21.77;10.60;;;;;;;;;;4983262;28;20455;-84
2021/11/10 07:52:31;;;;;;;23.05;11.27;;;;;;;;;;4995495;28;20039;-84
2021/11/10 07:54:57;;;;;;;21.95;11.45;;;;;;;;;;4968912;28;20395;-84
2021/11/10 07:57:23;;;;;;;21.55;11.20;;;;;;;;;;4993777;28;20041;-84
2021/11/10 07:59:49;;;;;;;18.85;9.73;;;;;;;;;;4982048;28;20112;-84
2021/11/10 08:02:15;;;;;;;23.38;12.07;;;;;;;;;;4975372;28;20038;-84
2021/11/10 08:04:41;;;;;;;23.33;11.60;;;;;;;;;;4986727;28;20352;-84
2021/11/10 08:07:07;;;;;;;22.95;10.52;;;;;;;;;;4976069;28;20023;-84
2021/11/10 08:09:33;;;;;;;21.20;10.20;;;;;;;;;;4976551;28;20019;-84
2021/11/10 08:11:59;;;;;;;19.15;10.48;;;;;;;;;;4991934;28;20058;-84
2021/11/10 08:14:26;;;;;;;23.35;10.82;;;;;;;;;;4988698;28;20041;-84
2021/11/10 08:16:52;;;;;;;22.60;10.52;;;;;;;;;;4986716;28;20022;-84
2021/11/10 08:19:18;;;;;;;17.70;10.18;;;;;;;;;;4974109;28;20026;-84
2021/11/10 08:21:44;;;;;;;18.05;9.63;;;;;;;;;;4973153;28;20034;-84
2021/11/10 08:24:11;;;;;;;20.05;10.77;;;;;;;;;;4991946;28;20022;-84
2021/11/10 08:26:37;;;;;;;18.80;10.30;;;;;;;;;;4987496;28;20023;-84
2021/11/10 08:29:03;;;;;;;18.27;9.73;;;;;;;;;;4973780;28;20108;-84
2021/11/10 08:31:29;;;;;;;22.55;10.90;;;;;;;;;;4985900;28;20282;-84
2021/11/10 08:33:58;;;;;;;17.45;9.65;;;;;;;;;;4987193;28;20431;-84
2021/11/10 08:36:26;;;;;;;20.63;10.77;;;;;;;;;;4990902;28;20034;-84
2021/11/10 08:38:52;;;;;;;19.55;10.18;;;;;;;;;;4994817;28;20030;-84
2021/11/10 08:41:20;;;;;;;19.60;10.18;;;;;;;;;;4984932;28;20027;-84
2021/11/10 08:43:46;;;;;;;16.67;9.60;;;;;;;;;;5000057;28;20021;-84
2021/11/10 08:46:13;;;;;;;19.20;9.75;;;;;;;;;;4976043;28;20072;-84
2021/11/10 08:48:39;;;;;;;18.58;10.15;;;;;;;;;;4977625;28;20109;-84
2021/11/10 08:51:05;;;;;;;18.83;9.65;;;;;;;;;;4972883;28;20042;-84
2021/11/10 08:53:32;;;;;;;18.17;9.32;;;;;;;;;;4989915;28;20062;-84
2021/11/10 08:55:58;;;;;;;16.33;8.85;;;;;;;;;;4976279;28;20542;-84
2021/11/10 08:58:25;;;;;;;17.20;9.43;;;;;;;;;;4990644;28;20450;-84
2021/11/10 09:00:52;;;;;;;21.48;9.85;;;;;;;;;;4989807;28;20545;-84
2021/11/10 09:03:20;;;;;;;21.98;10.30;;;;;;;;;;4975890;28;20383;-84
2021/11/10 09:05:46;;;;;;;17.48;9.70;;;;;;;;;;4974790;28;20026;-84
2021/11/10 09:08:12;;;;;;;17.45;8.52;;;;;;;;;;4976677;28;20034;-84
2021/11/10 09:10:39;;;;;;;16.58;9.38;;;;;;;;;;4988081;28;20176;-84
2021/11/10 09:13:05;;;;;;;16.27;8.55;;;;;;;;;;4996091;28;20398;-84
2021/11/10 09:15:33;;;;;;;15.73;8.57;;;;;;;;;;4978796;28;20364;-85
2021/11/10 09:17:59;;;;;;;13.40;7.68;;;;;;;;;;4987657;28;20037;-85
2021/11/10 09:20:27;;;;;;;15.00;7.78;;;;;;;;;;4974526;28;20031;-85
2021/11/10 09:22:54;;;;;;;11.20;6.70;;;;;;;;;;4986969;28;20026;-85
2021/11/10 09:25:21;;;;;;;11.07;6.15;;;;;;;;;;4978767;28;20018;-85
2021/11/10 09:27:48;;;;;;;12.20;5.78;;;;;;;;;;4980406;28;20054;-85
2021/11/10 09:30:15;;;;;;;10.85;5.97;;;;;;;;;;4976001;28;20034;-85
2021/11/10 09:32:42;;;;;;;11.23;6.00;;;;;;;;;;4984299;28;20026;-85
2021/11/10 09:35:10;;;;;;;10.77;5.88;;;;;;;;;;4984971;28;20109;-85
2021/11/10 09:37:37;;;;;;;10.93;5.63;;;;;;;;;;4988479;28;20429;-85
2021/11/10 09:40:04;;;;;;;13.30;6.20;;;;;;;;;;4979264;28;20033;-85
2021/11/10 09:42:30;;;;;;;9.80;6.05;;;;;;;;;;4978044;28;20492;-85
2021/11/10 09:44:58;;;;;;;12.90;6.35;;;;;;;;;;4978222;28;20125;-85
2021/11/10 09:47:24;;;;;;;11.38;6.55;;;;;;;;;;4984423;28;20031;-85
2021/11/10 09:49:51;;;;;;;15.40;6.63;;;;;;;;;;4989168;28;20026;-85
2021/11/10 09:52:17;;;;;;;11.40;6.00;;;;;;;;;;4985754;28;20041;-84
2021/11/10 09:54:43;;;;;;;10.88;5.50;;;;;;;;;;4978051;28;20205;-84
2021/11/10 09:57:09;;;;;;;9.50;5.15;;;;;;;;;;4987282;28;20143;-85
2021/11/10 09:59:39;;;;;;;11.27;6.38;;;;;;;;;;4990243;28;20031;-85
2021/11/10 10:02:11;;;;;;;14.63;6.72;;;;;;;;;;4976263;28;20058;-85
2021/11/10 10:04:38;;;;;;;11.38;5.43;;;;;;;;;;4991451;28;20031;-85
2021/11/10 10:07:04;;;;;;;8.95;5.45;;;;;;;;;;4982931;28;20538;-85
2021/11/10 10:09:30;;;;;;;8.80;5.60;;;;;;;;;;4991132;28;20030;-85
2021/11/10 10:11:56;;;;;;;11.07;5.40;;;;;;;;;;4997615;28;20089;-85
2021/11/10 10:14:22;;;;;;;8.13;4.60;;;;;;;;;;4980845;28;20033;-85
2021/11/10 10:16:48;;;;;;;8.07;4.70;;;;;;;;;;4985645;28;20038;-85
2021/11/10 10:19:14;;;;;;;9.02;4.63;;;;;;;;;;4998922;28;20106;-85
2021/11/10 10:21:42;;;;;;;9.82;5.10;;;;;;;;;;4980763;28;20522;-85
2021/11/10 10:24:09;;;;;;;9.40;4.40;;;;;;;;;;4970251;28;20057;-85
2021/11/10 10:26:36;;;;;;;8.25;5.15;;;;;;;;;;4995569;28;20038;-85
2021/11/10 10:29:10;;;;;;;10.02;5.07;;;;;;;;;;4984285;28;20404;-85
2021/11/10 10:31:37;;;;;;;9.05;5.07;;;;;;;;;;4994806;28;20359;-85
2021/11/10 10:34:06;;;;;;;9.80;5.10;;;;;;;;;;4968688;28;20026;-85
2021/11/10 10:36:34;;;;;;;9.07;4.88;;;;;;;;;;4993192;28;20042;-85
2021/11/10 10:39:04;;;;;;;8.13;4.88;;;;;;;;;;4968771;28;20041;-85
2021/11/10 10:41:40;;;;;;;7.78;4.75;;;;;;;;;;4974753;28;20407;-85
2021/11/10 10:44:08;;;;;;;8.30;4.68;;;;;;;;;;4993060;28;20027;-85
2021/11/10 10:46:37;;;;;;;8.63;4.15;;;;;;;;;;4992117;28;20030;-85
2021/11/10 10:49:18;;;;;;;5.70;3.88;;;;;;;;;;4988029;28;20022;-85
2021/11/10 10:51:45;;;;;;;7.75;4.07;;;;;;;;;;4980060;28;20034;-85
2021/11/10 10:54:11;;;;;;;9.52;5.05;;;;;;;;;;4987608;28;20503;-85
2021/11/10 10:56:38;;;;;;;10.52;4.90;;;;;;;;;;4982210;28;20030;-85
2021/11/10 10:59:09;;;;;;;6.68;4.05;;;;;;;;;;4988654;28;20038;-85
2021/11/10 11:01:36;;;;;;;9.80;4.75;;;;;;;;;;4989518;28;20689;-85
2021/11/10 11:04:16;;;;;;;9.70;4.28;;;;;;;;;;4991640;28;20386;-85
2021/11/10 11:06:47;;;;;;;5.78;3.75;;;;;;;;;;4985483;28;20106;-85
2021/11/10 11:09:14;;;;;;;7.55;4.30;;;;;;;;;;4992040;28;20023;-85
2021/11/10 11:11:55;;;;;;;7.22;4.50;;;;;;;;;;4981792;28;20077;-85
2021/11/10 11:14:27;;;;;;;6.80;3.70;;;;;;;;;;4980552;28;20023;-85
2021/11/10 11:17:04;;;;;;;8.88;4.60;;;;;;;;;;4992963;28;20054;-85
2021/11/10 11:19:33;;;;;;;8.30;4.40;;;;;;;;;;4976229;28;20030;-86
2021/11/10 11:22:00;;;;;;;8.60;4.20;;;;;;;;;;4998144;28;20073;-86
2021/11/10 11:24:39;;;;;;;10.50;4.05;;;;;;;;;;4984807;28;20081;-86
2021/11/10 11:27:10;;;;;;;6.15;3.72;;;;;;;;;;4983747;28;20023;-86
2021/11/10 11:29:36;;;;;;;4.93;3.22;;;;;;;;;;4980192;28;20034;-86
2021/11/10 11:32:16;;;;;;;6.18;3.22;;;;;;;;;;4987215;28;20053;-86
2021/11/10 11:34:47;;;;;;;7.10;3.92;;;;;;;;;;4995837;28;20022;-86
2021/11/10 11:37:14;;;;;;;6.35;3.65;;;;;;;;;;4995088;28;20123;-86
2021/11/10 11:39:39;;;;;;;8.02;4.00;;;;;;;;;;4985417;28;20076;-86
2021/11/10 11:42:06;;;;;;;4.35;3.25;;;;;;;;;;4980136;28;20066;-86
2021/11/10 11:44:34;;;;;;;7.35;3.95;;;;;;;;;;4983196;28;20089;-86
2021/11/10 11:47:00;;;;;;;7.10;3.40;;;;;;;;;;4980077;28;20027;-86
2021/11/10 11:49:26;;;;;;;6.18;3.83;;;;;;;;;;4983647;28;20030;-87
2021/11/10 11:51:52;;;;;;;6.30;3.95;;;;;;;;;;4989155;28;20073;-84
2021/11/10 11:54:18;;;;;;;5.57;3.42;;;;;;;;;;4979864;28;20054;-84
2021/11/10 11:56:44;;;;;;;5.50;3.42;;;;;;;;;;4978408;28;20030;-84
2021/11/10 11:59:11;;;;;;;6.95;3.72;;;;;;;;;;4974460;28;20484;-84
2021/11/10 12:01:38;;;;;;;5.95;3.35;;;;;;;;;;4976266;28;20114;-84
2021/11/10 12:04:10;;;;;;;6.03;3.38;;;;;;;;;;4974152;28;20026;-84
2021/11/10 12:06:48;;;;;;;5.20;3.15;;;;;;;;;;4985571;28;20030;-84
2021/11/10 12:09:16;;;;;;;5.18;3.13;;;;;;;;;;4990767;28;20026;-84
2021/11/10 12:11:42;;;;;;;4.38;3.15;;;;;;;;;;4975542;28;20080;-85
2021/11/10 12:14:17;;;;;;;5.95;3.50;;;;;;;;;;4975013;28;20022;-85
2021/11/10 12:17:02;;;;;;;5.97;2.97;;;;;;;;;;4990175;28;20109;-84
2021/11/10 12:19:33;;;;;;;5.22;3.20;;;;;;;;;;4989128;28;20030;-84
2021/11/10 12:22:02;;;;;;;5.82;3.22;;;;;;;;;;4987452;28;20027;-84
2021/11/10 12:24:41;;;;;;;4.07;2.88;;;;;;;;;;4989648;28;20038;-84
2021/11/10 12:27:09;;;;;;;5.65;3.28;;;;;;;;;;4985788;28;20402;-84
2021/11/10 12:29:50;;;;;;;6.43;3.22;;;;;;;;;;4988768;28;20072;-84
2021/11/10 12:32:17;;;;;;;5.07;3.08;;;;;;;;;;4988977;28;20035;-84
2021/11/10 12:34:47;;;;;;;5.53;3.30;;;;;;;;;;4990097;28;20088;-84
2021/11/10 12:37:22;;;;;;;3.17;2.58;;;;;;;;;;4996577;28;20344;-83
2021/11/10 12:39:48;;;;;;;6.95;3.25;;;;;;;;;;4992686;28;20049;-86
2021/11/10 12:42:16;;;;;;;8.82;4.10;;;;;;;;;;4975012;28;20057;-85
2021/11/10 12:44:50;;;;;;;7.30;4.07;;;;;;;;;;4992218;28;20502;-85
2021/11/10 12:47:17;;;;;;;7.80;4.40;;;;;;;;;;4991045;28;20095;-85
2021/11/10 12:49:43;;;;;;;10.93;4.40;;;;;;;;;;4994658;28;20022;-85
2021/11/10 12:52:14;;;;;;;7.85;4.63;;;;;;;;;;4977862;28;20216;-85
2021/11/10 12:55:00;;;;;;;7.45;4.55;;;;;;;;;;4990270;28;20039;-85
2021/11/10 12:57:31;;;;;;;9.95;5.45;;;;;;;;;;4990032;28;20418;-85
2021/11/10 12:59:57;;;;;;;10.07;5.07;;;;;;;;;;4991784;28;20499;-85
2021/11/10 13:02:24;;;;;;;8.45;4.97;;;;;;;;;;4997934;28;20026;-85
2021/11/10 13:04:51;;;;;;;7.05;4.57;;;;;;;;;;4988156;28;20041;-85
2021/11/10 13:07:49;;;;;;;11.88;4.70;;;;;;;;;;4974994;28;20019;-85
2021/11/10 13:10:07;;;;;;;10.70;4.90;;;;;;;;;;4985567;28;20034;-85
2021/11/10 13:12:34;;;;;;;10.77;5.05;;;;;;;;;;4977047;28;20126;-85
2021/11/10 13:15:00;;;;;;;10.43;5.53;;;;;;;;;;4993168;28;20037;-84
2021/11/10 13:17:32;;;;;;;8.43;4.28;;;;;;;;;;4995165;28;20030;-85
2021/11/10 13:19:59;;;;;;;8.60;4.68;;;;;;;;;;4994280;28;20033;-85
2021/11/10 13:22:28;;;;;;;10.23;5.03;;;;;;;;;;4977728;28;20386;-85
2021/11/10 13:25:00;;;;;;;12.07;5.32;;;;;;;;;;4988596;28;20064;-85
2021/11/10 13:27:33;;;;;;;9.45;4.60;;;;;;;;;;4977072;28;20119;-85
2021/11/10 13:29:59;;;;;;;;;;;;;;;;;;4996279;28;20019;-85
2021/11/10 13:32:25;;;;;;;8.45;4.40;;;;;;;;;;4984956;28;19917;-85
2021/11/10 13:34:57;;;;;;;10.15;4.47;;;;;;;;;;4993000;28;20038;-84
2021/11/10 13:37:23;;;;;;;11.88;5.43;;;;;;;;;;4980659;28;20027;-84
2021/11/10 13:39:56;;;;;;;8.25;4.80;;;;;;;;;;4972987;28;20026;-84
2021/11/10 13:42:26;;;;;;;8.85;4.75;;;;;;;;;;4987205;28;20771;-84
2021/11/10 13:45:03;;;;;;;9.52;5.20;;;;;;;;;;4978153;28;20050;-85
2021/11/10 13:47:29;;;;;;;6.63;4.10;;;;;;;;;;4983322;28;20080;-84
2021/11/10 13:49:56;;;;;;;9.43;5.40;;;;;;;;;;4992723;28;20400;-85
2021/11/10 13:52:23;;;;;;;9.27;4.95;;;;;;;;;;4980456;28;20035;-85
2021/11/10 13:54:51;;;;;;;9.32;4.72;;;;;;;;;;4970107;28;20026;-85
2021/11/10 13:57:27;;;;;;;9.52;5.15;;;;;;;;;;4993171;28;20041;-85
2021/11/10 13:59:54;;;;;;;11.18;5.75;;;;;;;;;;4976786;28;20118;-85
2021/11/10 14:02:22;;;;;;;11.32;5.20;;;;;;;;;;4988462;28;20026;-85
2021/11/10 14:04:53;;;;;;;9.95;4.63;;;;;;;;;;4980034;28;20031;-85
2021/11/10 14:07:20;;;;;;;10.90;4.63;;;;;;;;;;4990300;28;20022;-85
2021/11/10 14:09:58;;;;;;;8.05;4.95;;;;;;;;;;4974523;28;20901;-85
2021/11/10 14:12:33;;;;;;;7.88;5.07;;;;;;;;;;4980351;28;20026;-85
2021/11/10 14:15:02;;;;;;;7.53;4.35;;;;;;;;;;4978822;28;20045;-85
2021/11/10 14:17:30;;;;;;;7.00;4.18;;;;;;;;;;4984226;28;20031;-86
2021/11/10 14:20:07;;;;;;;9.73;4.53;;;;;;;;;;4988956;28;20035;-85
2021/11/10 14:22:34;;;;;;;13.07;5.05;;;;;;;;;;4986193;28;20035;-85
2021/11/10 14:25:01;;;;;;;7.90;4.50;;;;;;;;;;4986978;28;20058;-84
2021/11/10 14:27:31;;;;;;;8.45;4.45;;;;;;;;;;4996693;28;20067;-85
2021/11/10 14:30:05;;;;;;;8.10;4.57;;;;;;;;;;5000296;28;20528;-84